sensor_id;sensor_type;location;lat;lon;timestamp;temperature;humidity
14154;DHT22;7157;53.144;7.570;2024-03-02T00:00:41;7.91;97.31
14154;DHT22;7157;53.144;7.570;2024-03-02T00:10:46;8.00;96.49
14154;DHT22;7157;53.144;7.570;2024-03-02T00:20:49;8.18;95.42
14154;DHT22;7157;53.144;7.570;2024-03-02T00:30:58;8.09;95.84
14154;DHT22;7157;53.144;7.570;2024-03-02T00:41:05;8.13;95.10
14154;DHT22;7157;53.144;7.570;2024-03-02T00:51:10;7.93;95.85
14154;DHT22;7157;53.144;7.570;2024-03-02T01:01:13;8.11;94.62
14154;DHT22;7157;53.144;7.570;2024-03-02T01:11:19;7.85;95.38
14154;DHT22;7157;53.144;7.570;2024-03-02T01:21:24;8.06;93.95
14154;DHT22;7157;53.144;7.570;2024-03-02T01:31:28;7.86;94.70
14154;DHT22;7157;53.144;7.570;2024-03-02T01:41:31;8.03;93.55
14154;DHT22;7157;53.144;7.570;2024-03-02T01:51:35;7.99;93.16
14154;DHT22;7157;53.144;7.570;2024-03-02T02:01:38;7.76;94.34
14154;DHT22;7157;53.144;7.570;2024-03-02T02:11:43;7.92;92.88
14154;DHT22;7157;53.144;7.570;2024-03-02T02:21:47;7.90;92.68
14154;DHT22;7157;53.144;7.570;2024-03-02T02:31:50;7.84;92.91
14154;DHT22;7157;53.144;7.570;2024-03-02T02:41:54;8.09;90.61
14154;DHT22;7157;53.144;7.570;2024-03-02T02:51:57;8.12;90.22
14154;DHT22;7157;53.144;7.570;2024-03-02T03:02:01;8.12;89.66
14154;DHT22;7157;53.144;7.570;2024-03-02T03:12:04;7.93;90.65
14154;DHT22;7157;53.144;7.570;2024-03-02T03:22:08;7.79;91.23
14154;DHT22;7157;53.144;7.570;2024-03-02T03:32:11;7.60;92.21
14154;DHT22;7157;53.144;7.570;2024-03-02T03:42:16;7.45;92.97
14154;DHT22;7157;53.144;7.570;2024-03-02T03:52:18;7.30;93.90
14154;DHT22;7157;53.144;7.570;2024-03-02T04:02:24;7.15;94.70
14154;DHT22;7157;53.144;7.570;2024-03-02T04:12:27;7.08;95.30
14154;DHT22;7157;53.144;7.570;2024-03-02T04:22:33;7.15;94.92
14154;DHT22;7157;53.144;7.570;2024-03-02T04:32:35;7.05;95.39
14154;DHT22;7157;53.144;7.570;2024-03-02T04:42:40;7.00;95.89
14154;DHT22;7157;53.144;7.570;2024-03-02T04:52:42;6.76;97.20
14154;DHT22;7157;53.144;7.570;2024-03-02T05:02:47;6.76;97.23
14154;DHT22;7157;53.144;7.570;2024-03-02T05:12:49;6.66;98.05
14154;DHT22;7157;53.144;7.570;2024-03-02T05:23:00;6.66;98.15
14154;DHT22;7157;53.144;7.570;2024-03-02T05:33:03;6.65;98.33
14154;DHT22;7157;53.144;7.570;2024-03-02T05:43:07;6.58;98.71
14154;DHT22;7157;53.144;7.570;2024-03-02T05:53:10;6.42;99.68
14154;DHT22;7157;53.144;7.570;2024-03-02T06:03:14;6.41;100.18
14154;DHT22;7157;53.144;7.570;2024-03-02T06:13:18;6.36;100.51
14154;DHT22;7157;53.144;7.570;2024-03-02T06:23:22;6.44;100.32
14154;DHT22;7157;53.144;7.570;2024-03-02T06:33:26;6.54;100.15
14154;DHT22;7157;53.144;7.570;2024-03-02T06:43:31;6.57;100.02
14154;DHT22;7157;53.144;7.570;2024-03-02T06:53:34;6.58;100.35
14154;DHT22;7157;53.144;7.570;2024-03-02T07:03:38;6.72;100.03
14154;DHT22;7157;53.144;7.570;2024-03-02T07:13:41;6.90;99.42
14154;DHT22;7157;53.144;7.570;2024-03-02T07:23:45;7.26;97.55
14154;DHT22;7157;53.144;7.570;2024-03-02T07:33:48;7.52;96.77
14154;DHT22;7157;53.144;7.570;2024-03-02T07:43:53;7.73;96.53
14154;DHT22;7157;53.144;7.570;2024-03-02T07:53:55;8.49;92.60
14154;DHT22;7157;53.144;7.570;2024-03-02T08:04:00;9.12;89.76
14154;DHT22;7157;53.144;7.570;2024-03-02T08:14:05;9.56;88.09
14154;DHT22;7157;53.144;7.570;2024-03-02T08:24:09;9.82;86.60
14154;DHT22;7157;53.144;7.570;2024-03-02T08:34:12;10.13;85.50
14154;DHT22;7157;53.144;7.570;2024-03-02T08:44:17;10.43;83.72
14154;DHT22;7157;53.144;7.570;2024-03-02T08:54:20;10.64;83.85
14154;DHT22;7157;53.144;7.570;2024-03-02T09:04:25;10.62;82.82
14154;DHT22;7157;53.144;7.570;2024-03-02T09:14:29;10.42;84.67
14154;DHT22;7157;53.144;7.570;2024-03-02T09:24:33;10.88;81.72
14154;DHT22;7157;53.144;7.570;2024-03-02T09:34:37;10.79;83.31
14154;DHT22;7157;53.144;7.570;2024-03-02T09:44:42;11.23;80.52
14154;DHT22;7157;53.144;7.570;2024-03-02T09:54:47;11.63;78.73
14154;DHT22;7157;53.144;7.570;2024-03-02T10:04:51;12.04;76.59
14154;DHT22;7157;53.144;7.570;2024-03-02T10:15:03;12.18;74.28
14154;DHT22;7157;53.144;7.570;2024-03-02T10:25:28;12.57;72.44
14154;DHT22;7157;53.144;7.570;2024-03-02T10:35:44;12.86;69.52
14154;DHT22;7157;53.144;7.570;2024-03-02T10:45:49;12.94;69.69
14154;DHT22;7157;53.144;7.570;2024-03-02T10:55:57;13.23;70.00
14154;DHT22;7157;53.144;7.570;2024-03-02T11:06:07;13.21;68.00
14154;DHT22;7157;53.144;7.570;2024-03-02T11:16:16;14.30;65.75
14154;DHT22;7157;53.144;7.570;2024-03-02T11:26:24;14.93;60.38
14154;DHT22;7157;53.144;7.570;2024-03-02T11:36:31;23.43;37.53
14154;DHT22;7157;53.144;7.570;2024-03-02T11:46:35;27.88;28.00
14154;DHT22;7157;53.144;7.570;2024-03-02T11:56:41;29.68;21.92
14154;DHT22;7157;53.144;7.570;2024-03-02T12:06:45;30.89;19.13
14154;DHT22;7157;53.144;7.570;2024-03-02T12:16:49;31.11;19.32
14154;DHT22;7157;53.144;7.570;2024-03-02T12:26:54;31.37;17.97
14154;DHT22;7157;53.144;7.570;2024-03-02T12:36:58;32.04;16.94
14154;DHT22;7157;53.144;7.570;2024-03-02T12:47:02;28.24;21.95
14154;DHT22;7157;53.144;7.570;2024-03-02T12:57:05;26.95;22.76
14154;DHT22;7157;53.144;7.570;2024-03-02T13:07:10;23.75;28.32
14154;DHT22;7157;53.144;7.570;2024-03-02T13:17:15;22.02;32.84
14154;DHT22;7157;53.144;7.570;2024-03-02T13:27:19;23.56;30.25
14154;DHT22;7157;53.144;7.570;2024-03-02T13:37:23;24.33;27.71
14154;DHT22;7157;53.144;7.570;2024-03-02T13:47:27;25.20;26.83
14154;DHT22;7157;53.144;7.570;2024-03-02T13:57:30;26.37;25.07
14154;DHT22;7157;53.144;7.570;2024-03-02T14:07:34;30.12;20.17
14154;DHT22;7157;53.144;7.570;2024-03-02T14:17:37;25.16;27.26
14154;DHT22;7157;53.144;7.570;2024-03-02T14:27:41;25.86;27.01
14154;DHT22;7157;53.144;7.570;2024-03-02T14:38:04;26.67;26.07
14154;DHT22;7157;53.144;7.570;2024-03-02T14:48:08;27.68;23.66
14154;DHT22;7157;53.144;7.570;2024-03-02T14:58:11;26.33;26.39
14154;DHT22;7157;53.144;7.570;2024-03-02T15:08:15;25.66;27.61
14154;DHT22;7157;53.144;7.570;2024-03-02T15:18:18;24.38;28.95
14154;DHT22;7157;53.144;7.570;2024-03-02T15:28:23;23.28;31.32
14154;DHT22;7157;53.144;7.570;2024-03-02T15:38:25;21.98;34.24
14154;DHT22;7157;53.144;7.570;2024-03-02T15:48:37;20.75;37.17
14154;DHT22;7157;53.144;7.570;2024-03-02T15:58:40;18.66;42.13
14154;DHT22;7157;53.144;7.570;2024-03-02T16:08:44;18.76;41.92
14154;DHT22;7157;53.144;7.570;2024-03-02T16:18:46;17.97;44.98
14154;DHT22;7157;53.144;7.570;2024-03-02T16:28:51;17.29;47.00
14154;DHT22;7157;53.144;7.570;2024-03-02T16:38:54;16.55;49.44
14154;DHT22;7157;53.144;7.570;2024-03-02T16:48:58;15.87;52.33
14154;DHT22;7157;53.144;7.570;2024-03-02T16:59:01;15.16;55.10
14154;DHT22;7157;53.144;7.570;2024-03-02T17:09:05;14.57;57.97
14154;DHT22;7157;53.144;7.570;2024-03-02T17:19:08;14.24;59.36
14154;DHT22;7157;53.144;7.570;2024-03-02T17:29:12;13.91;61.70
14154;DHT22;7157;53.144;7.570;2024-03-02T17:39:15;13.60;64.24
14154;DHT22;7157;53.144;7.570;2024-03-02T17:49:19;13.37;65.17
14154;DHT22;7157;53.144;7.570;2024-03-02T17:59:22;13.03;67.55
14154;DHT22;7157;53.144;7.570;2024-03-02T18:09:26;12.84;68.89
14154;DHT22;7157;53.144;7.570;2024-03-02T18:19:29;12.70;69.59
14154;DHT22;7157;53.144;7.570;2024-03-02T18:29:34;12.58;70.64
14154;DHT22;7157;53.144;7.570;2024-03-02T18:39:37;12.29;71.58
14154;DHT22;7157;53.144;7.570;2024-03-02T18:49:43;12.12;73.81
14154;DHT22;7157;53.144;7.570;2024-03-02T18:59:47;12.06;73.99
14154;DHT22;7157;53.144;7.570;2024-03-02T19:09:51;12.05;74.28
14154;DHT22;7157;53.144;7.570;2024-03-02T19:19:54;12.06;74.60
14154;DHT22;7157;53.144;7.570;2024-03-02T19:29:58;12.03;74.11
14154;DHT22;7157;53.144;7.570;2024-03-02T19:40:01;11.89;74.53
14154;DHT22;7157;53.144;7.570;2024-03-02T19:50:09;11.77;74.91
14154;DHT22;7157;53.144;7.570;2024-03-02T20:00:15;11.64;75.67
14154;DHT22;7157;53.144;7.570;2024-03-02T20:10:20;11.69;74.76
14154;DHT22;7157;53.144;7.570;2024-03-02T20:20:23;11.54;74.78
14154;DHT22;7157;53.144;7.570;2024-03-02T20:30:27;11.34;75.88
14154;DHT22;7157;53.144;7.570;2024-03-02T20:40:30;11.17;76.35
14154;DHT22;7157;53.144;7.570;2024-03-02T20:50:35;10.96;77.15
14154;DHT22;7157;53.144;7.570;2024-03-02T21:00:38;10.75;77.82
14154;DHT22;7157;53.144;7.570;2024-03-02T21:10:42;10.62;80.28
14154;DHT22;7157;53.144;7.570;2024-03-02T21:20:49;10.65;79.94
14154;DHT22;7157;53.144;7.570;2024-03-02T21:30:53;10.73;79.76
14154;DHT22;7157;53.144;7.570;2024-03-02T21:40:56;10.80;79.34
14154;DHT22;7157;53.144;7.570;2024-03-02T21:51:00;10.63;80.07
14154;DHT22;7157;53.144;7.570;2024-03-02T22:01:04;10.52;80.85
14154;DHT22;7157;53.144;7.570;2024-03-02T22:11:09;10.46;81.84
14154;DHT22;7157;53.144;7.570;2024-03-02T22:21:13;10.41;82.23
14154;DHT22;7157;53.144;7.570;2024-03-02T22:31:17;10.49;82.30
14154;DHT22;7157;53.144;7.570;2024-03-02T22:41:21;10.50;82.12
14154;DHT22;7157;53.144;7.570;2024-03-02T22:51:26;10.50;82.00
14154;DHT22;7157;53.144;7.570;2024-03-02T23:01:29;10.42;81.91
14154;DHT22;7157;53.144;7.570;2024-03-02T23:11:34;10.35;82.33
14154;DHT22;7157;53.144;7.570;2024-03-02T23:21:37;10.38;81.97
14154;DHT22;7157;53.144;7.570;2024-03-02T23:31:41;10.29;81.95
14154;DHT22;7157;53.144;7.570;2024-03-02T23:41:44;10.27;81.73
14154;DHT22;7157;53.144;7.570;2024-03-02T23:51:48;10.21;82.12
